createdAt,value
2022-10-18T21:07:48.403Z,14.10
2022-10-18T21:11:31.963Z,13.90
2022-10-18T21:15:14.162Z,13.90
2022-10-18T21:18:56.125Z,14.00
2022-10-18T21:22:37.984Z,14.00
2022-10-18T21:26:25.308Z,14.10
2022-10-18T21:30:07.598Z,14.20
2022-10-18T21:33:57.209Z,14.30
2022-10-18T21:37:39.063Z,14.30
2022-10-18T21:41:22.266Z,14.30
2022-10-18T21:45:04.591Z,14.40
2022-10-18T21:48:49.027Z,14.50
2022-10-18T21:52:31.016Z,14.50
2022-10-18T21:56:18.482Z,14.50
2022-10-18T22:00:00.298Z,14.50
2022-10-18T22:03:42.909Z,14.60
2022-10-18T22:07:24.891Z,14.60
2022-10-18T22:11:07.288Z,14.60
2022-10-18T22:14:49.132Z,14.60
2022-10-18T22:18:32.545Z,14.60
2022-10-18T22:22:14.420Z,14.60
2022-10-18T22:25:56.288Z,14.60
2022-10-18T22:29:38.121Z,14.60
2022-10-18T22:33:19.983Z,14.60
2022-10-18T22:37:01.920Z,14.50
2022-10-18T22:40:43.804Z,14.50
2022-10-18T22:44:25.802Z,14.50
2022-10-18T22:48:07.831Z,14.50
2022-10-18T22:51:49.655Z,14.40
2022-10-18T22:55:31.579Z,14.50
2022-10-18T22:59:13.425Z,14.40
2022-10-18T23:02:55.414Z,14.40
2022-10-18T23:06:37.458Z,14.40
2022-10-18T23:10:19.317Z,14.40
2022-10-18T23:14:03.116Z,14.40
2022-10-18T23:17:44.964Z,14.30
2022-10-18T23:21:28.189Z,14.30
2022-10-18T23:25:10.132Z,14.30
2022-10-18T23:28:53.429Z,14.30
2022-10-18T23:32:35.900Z,14.30
2022-10-18T23:36:18.665Z,14.20
2022-10-18T23:40:00.673Z,14.20
2022-10-18T23:43:43.871Z,14.10
2022-10-18T23:47:25.754Z,14.10
2022-10-18T23:51:07.988Z,14.10
2022-10-18T23:54:49.845Z,14.10
2022-10-18T23:58:33.521Z,14.10
